createdAt,value
2022-09-05T00:03:05.317Z,15.95
2022-09-05T00:08:39.748Z,15.91
2022-09-05T00:14:34.142Z,15.85
2022-09-05T00:24:21.928Z,15.80
2022-09-05T00:26:12.875Z,15.77
2022-09-05T00:31:53.892Z,15.75
2022-09-05T00:37:32.189Z,15.72
2022-09-05T00:42:58.604Z,15.69
2022-09-05T00:48:25.205Z,15.65
2022-09-05T00:54:04.356Z,15.61
2022-09-05T00:59:40.662Z,15.60
2022-09-05T01:05:04.722Z,15.60
2022-09-05T01:10:28.855Z,15.56
2022-09-05T01:15:52.290Z,15.55
2022-09-05T01:21:27.981Z,15.53
2022-09-05T01:26:57.994Z,15.53
2022-09-05T01:32:30.029Z,15.52
2022-09-05T01:38:12.073Z,15.50
2022-09-05T01:43:41.264Z,15.49
2022-09-05T01:49:09.918Z,15.48
2022-09-05T01:54:49.374Z,15.48
2022-09-05T02:00:12.759Z,15.46
2022-09-05T02:05:51.832Z,15.43
2022-09-05T02:11:13.009Z,15.38
2022-09-05T02:16:44.202Z,15.37
2022-09-05T02:22:11.024Z,15.33
2022-09-05T02:28:05.139Z,15.31
2022-09-05T02:33:29.384Z,15.28
2022-09-05T02:45:02.679Z,15.27
2022-09-05T02:45:12.357Z,15.24
2022-09-05T02:57:28.479Z,15.25
2022-09-05T02:57:42.881Z,15.25
2022-09-05T03:02:27.027Z,15.23
2022-09-05T03:07:54.184Z,15.22
2022-09-05T03:13:30.154Z,15.19
2022-09-05T03:19:03.127Z,15.16
2022-09-05T03:24:24.865Z,15.14
2022-09-05T03:29:58.637Z,15.15
2022-09-05T03:35:43.691Z,15.14
2022-09-05T03:41:36.747Z,15.17
2022-09-05T03:47:11.038Z,15.17
2022-09-05T03:57:21.024Z,15.17
2022-09-05T03:58:18.079Z,15.17
2022-09-05T04:08:07.949Z,15.20
2022-09-05T04:09:49.526Z,15.22
2022-09-05T04:15:27.201Z,15.24
2022-09-05T04:20:50.653Z,15.24
2022-09-05T04:26:12.408Z,15.27
2022-09-05T04:31:45.057Z,15.28
2022-09-05T04:37:10.330Z,15.32
2022-09-05T04:42:31.398Z,15.32
2022-09-05T04:47:55.202Z,15.32
2022-09-05T04:53:40.586Z,15.36
2022-09-05T05:01:50.820Z,15.42
2022-09-05T05:06:10.660Z,15.47
2022-09-05T05:11:22.900Z,15.51
2022-09-05T05:18:15.154Z,15.57
2022-09-05T05:22:15.793Z,15.64
2022-09-05T05:27:45.094Z,15.71
2022-09-05T05:33:32.105Z,15.81
2022-09-05T05:38:55.691Z,15.88
2022-09-05T05:44:19.003Z,15.96
2022-09-05T05:49:57.662Z,16.05
2022-09-05T05:55:51.200Z,16.15
2022-09-05T06:01:37.705Z,16.25
2022-09-05T06:06:59.328Z,16.31
2022-09-05T06:14:55.798Z,16.33
2022-09-05T06:18:07.376Z,16.34
2022-09-05T06:23:38.867Z,16.39
2022-09-05T06:29:05.870Z,16.44
2022-09-05T06:34:45.383Z,16.51
2022-09-05T06:40:06.140Z,16.73
2022-09-05T06:45:46.667Z,17.10
2022-09-05T06:51:13.172Z,17.46
2022-09-05T06:56:39.218Z,17.71
2022-09-05T07:02:31.026Z,17.83
2022-09-05T07:08:13.612Z,18.04
2022-09-05T07:14:08.905Z,18.17
2022-09-05T07:19:41.247Z,18.34
2022-09-05T07:25:09.238Z,18.92
2022-09-05T07:30:30.000Z,19.40
2022-09-05T07:35:51.628Z,19.94
2022-09-05T07:41:11.953Z,20.36
2022-09-05T07:46:35.462Z,20.70
2022-09-05T07:56:54.645Z,21.06
2022-09-05T07:57:43.661Z,21.54
2022-09-05T08:03:14.487Z,21.98
2022-09-05T08:09:21.380Z,22.42
2022-09-05T08:14:44.000Z,23.07
2022-09-05T08:20:12.235Z,23.53
2022-09-05T08:25:37.570Z,23.40
2022-09-05T08:31:19.457Z,23.30
2022-09-05T08:36:46.397Z,23.35
2022-09-05T08:42:10.046Z,23.72
2022-09-05T08:47:45.708Z,22.77
2022-09-05T08:53:28.151Z,22.39
2022-09-05T08:59:31.601Z,22.28
2022-09-05T09:05:00.776Z,22.38
2022-09-05T09:10:22.757Z,23.27
2022-09-05T09:16:09.195Z,24.69
2022-09-05T09:21:56.790Z,24.93
2022-09-05T09:27:50.851Z,25.19
2022-09-05T09:33:20.402Z,26.88
2022-09-05T09:39:37.566Z,27.14
2022-09-05T09:45:22.987Z,28.63
2022-09-05T09:50:58.720Z,29.57
2022-09-05T09:56:20.051Z,30.01
2022-09-05T10:02:29.112Z,30.53
2022-09-05T10:10:49.901Z,30.92
2022-09-05T10:14:05.449Z,31.44
2022-09-05T10:25:19.989Z,31.28
2022-09-05T10:31:51.387Z,31.11
2022-09-05T10:36:23.559Z,28.62
2022-09-05T10:41:49.183Z,27.29
2022-09-05T10:47:16.319Z,28.34
2022-09-05T10:53:00.380Z,30.56
2022-09-05T11:00:05.699Z,31.08
2022-09-05T11:04:16.368Z,31.17
2022-09-05T11:09:36.792Z,30.88
2022-09-05T11:14:58.257Z,29.42
2022-09-05T11:20:20.742Z,29.97
2022-09-05T11:26:18.726Z,30.00
2022-09-05T11:31:54.833Z,30.54
2022-09-05T11:40:02.467Z,31.80
2022-09-05T11:43:38.032Z,32.01
2022-09-05T11:49:18.267Z,31.10
2022-09-05T11:54:48.046Z,30.37
2022-09-05T12:00:33.125Z,30.40
2022-09-05T12:06:06.186Z,31.11
2022-09-05T12:11:48.927Z,31.12
2022-09-05T12:17:34.825Z,31.30
2022-09-05T12:23:00.135Z,30.00
2022-09-05T12:29:27.546Z,30.00
2022-09-05T12:36:09.946Z,29.50
2022-09-05T12:41:34.768Z,29.04
2022-09-05T12:46:28.249Z,28.68
2022-09-05T12:51:57.808Z,27.89
2022-09-05T13:01:19.081Z,27.18
2022-09-05T13:03:28.791Z,26.75
2022-09-05T13:08:59.196Z,26.97
2022-09-05T13:14:54.758Z,27.13
2022-09-05T13:20:17.780Z,27.68
2022-09-05T13:25:41.561Z,27.97
2022-09-05T13:35:31.666Z,27.74
2022-09-05T13:38:04.392Z,27.84
2022-09-05T13:42:57.986Z,28.22
2022-09-05T13:48:28.412Z,28.09
2022-09-05T13:53:58.448Z,27.66
2022-09-05T13:59:24.427Z,27.07
2022-09-05T14:05:17.693Z,26.71
2022-09-05T14:10:45.807Z,26.20
2022-09-05T14:16:11.025Z,25.74
2022-09-05T14:21:33.325Z,25.42
2022-09-05T14:27:00.386Z,25.22
2022-09-05T14:37:41.989Z,24.93
2022-09-05T14:38:19.544Z,24.66
2022-09-05T14:44:01.467Z,24.36
2022-09-05T14:49:25.568Z,24.09
2022-09-05T15:02:41.038Z,23.84
2022-09-05T15:06:32.722Z,23.82
2022-09-05T15:12:22.075Z,23.76
2022-09-05T15:17:34.927Z,23.67
2022-09-05T15:22:56.222Z,23.41
2022-09-05T15:28:19.846Z,23.21
2022-09-05T15:33:44.415Z,23.08
2022-09-05T15:39:23.492Z,22.90
2022-09-05T15:45:06.387Z,22.73
2022-09-05T15:50:26.611Z,22.66
2022-09-05T15:55:49.929Z,22.58
2022-09-05T16:01:30.407Z,22.96
2022-09-05T16:10:38.968Z,23.30
2022-09-05T16:12:50.507Z,22.94
2022-09-05T16:23:15.523Z,22.67
2022-09-05T16:24:04.810Z,22.38
2022-09-05T16:29:28.092Z,22.12
2022-09-05T16:34:54.188Z,21.82
2022-09-05T16:40:28.654Z,21.65
2022-09-05T16:46:00.819Z,21.51
2022-09-05T16:51:34.672Z,21.32
2022-09-05T16:57:01.972Z,21.06
2022-09-05T17:02:28.064Z,20.94
2022-09-05T17:07:48.414Z,20.82
2022-09-05T17:13:12.586Z,20.68
2022-09-05T17:18:38.264Z,20.58
2022-09-05T17:29:18.696Z,20.63
2022-09-05T17:35:42.532Z,20.44
2022-09-05T17:41:16.203Z,20.22
2022-09-05T17:46:43.724Z,20.07
2022-09-05T17:52:05.808Z,19.89
2022-09-05T17:57:29.366Z,19.69
2022-09-05T18:02:52.946Z,19.50
2022-09-05T18:08:35.614Z,19.38
2022-09-05T18:14:04.704Z,19.20
2022-09-05T18:19:33.090Z,19.06
2022-09-05T18:25:27.889Z,18.93
2022-09-05T18:30:43.592Z,18.78
2022-09-05T18:36:05.730Z,18.71
2022-09-05T18:41:28.109Z,18.57
2022-09-05T18:47:00.626Z,18.45
2022-09-05T18:52:31.377Z,18.35
2022-09-05T18:58:25.755Z,18.25
2022-09-05T19:03:47.807Z,18.14
2022-09-05T19:09:21.080Z,18.08
2022-09-05T19:14:50.158Z,18.03
2022-09-05T19:20:31.218Z,17.95
2022-09-05T19:25:56.365Z,17.84
2022-09-05T19:36:52.471Z,17.77
2022-09-05T19:47:35.724Z,17.63
2022-09-05T19:48:27.349Z,17.58
2022-09-05T19:53:55.232Z,17.52
2022-09-05T19:59:39.906Z,17.47
2022-09-05T20:05:01.670Z,17.40
2022-09-05T20:10:27.228Z,17.36
2022-09-05T20:15:47.933Z,17.30
2022-09-05T20:21:10.718Z,17.25
2022-09-05T20:26:33.766Z,17.21
2022-09-05T20:31:58.335Z,17.18
2022-09-05T20:43:20.172Z,17.16
2022-09-05T20:43:35.216Z,17.09
2022-09-05T20:54:07.145Z,17.05
2022-09-05T20:54:42.391Z,17.00
2022-09-05T21:00:13.776Z,16.97
2022-09-05T21:05:42.540Z,16.93
2022-09-05T21:11:04.997Z,16.90
2022-09-05T21:16:30.593Z,16.89
2022-09-05T21:22:09.121Z,16.88
2022-09-05T21:27:30.222Z,16.85
2022-09-05T21:32:51.952Z,16.83
2022-09-05T21:38:13.735Z,16.81
2022-09-05T21:47:38.332Z,16.77
2022-09-05T21:49:21.168Z,16.75
2022-09-05T21:58:27.837Z,16.72
2022-09-05T22:00:24.180Z,16.70
2022-09-05T22:05:45.415Z,16.68
2022-09-05T22:11:08.328Z,16.69
2022-09-05T22:16:31.279Z,16.67
2022-09-05T22:21:53.453Z,16.68
2022-09-05T22:27:14.951Z,16.66
2022-09-05T22:32:35.889Z,16.64
2022-09-05T22:38:00.576Z,16.64
2022-09-05T22:43:20.981Z,16.67
2022-09-05T22:48:45.414Z,16.69
2022-09-05T22:54:05.851Z,16.73
2022-09-05T22:59:26.074Z,16.76
2022-09-05T23:04:47.340Z,16.81
2022-09-05T23:10:08.153Z,16.85
2022-09-05T23:15:28.839Z,16.88
2022-09-05T23:20:49.776Z,16.88
2022-09-05T23:26:12.115Z,16.89
2022-09-05T23:31:32.963Z,16.85
2022-09-05T23:36:53.540Z,16.83
2022-09-05T23:42:13.789Z,16.79
2022-09-05T23:47:37.535Z,16.73
2022-09-05T23:53:02.227Z,16.67
2022-09-05T23:58:22.891Z,16.61
